Aviation Digital Data Service (ADDS)

Output produced by METARs form (1730 UTC 03 June 2020)
found at http://www.aviationweather.gov/metar/data/
 
METAR text: RJOK 031100Z VRB02KT 8000 FEW010 BKN/// 22/20 Q1005
Conditions at: RJOK (KOCHI AIRPORT , JP) observed 1100 UTC 03 June 2020
Temperature: 22.0°C (72°F)
Dewpoint: 20.0°C (68°F) [RH = 88%]
Pressure (altimeter): 29.68 inches Hg (1005.0 mb)
Winds: variable direction winds at 2 MPH (2 knots; 1.0 m/s)
Visibility: 5 miles ( 8 km)
Ceiling: at least 12,000 feet AGL
Clouds: few clouds at 1000 feet AGL
Weather: no significant weather observed at this time

METAR text: RJOK 031000Z VRB01KT 8000 FEW010 SCT160 BKN/// 22/20 Q1006
Conditions at: RJOK (KOCHI AIRPORT , JP) observed 1000 UTC 03 June 2020
Temperature: 22.0°C (72°F)
Dewpoint: 20.0°C (68°F) [RH = 88%]
Pressure (altimeter): 29.70 inches Hg (1006.0 mb)
Winds: variable direction winds at 1 MPH (1 knots; 0.5 m/s)
Visibility: 5 miles ( 8 km)
Ceiling: at least 12,000 feet AGL
Clouds: few clouds at 1000 feet AGL
scattered clouds at 16000 feet AGL
Weather: no significant weather observed at this time

METAR text: RJOK 030900Z 19004KT 150V220 9999 FEW010 SCT140 BKN180 22/20 Q1005
Conditions at: RJOK (KOCHI AIRPORT , JP) observed 0900 UTC 03 June 2020
Temperature: 22.0°C (72°F)
Dewpoint: 20.0°C (68°F) [RH = 88%]
Pressure (altimeter): 29.68 inches Hg (1005.0 mb)
Winds: from the S (190 degrees) at 5 MPH (4 knots; 2.1 m/s)
Visibility: 6 or more miles (10+ km)
Ceiling: 18000 feet AGL
Clouds: few clouds at 1000 feet AGL
scattered clouds at 14000 feet AGL
broken clouds at 18000 feet AGL
Weather: no significant weather observed at this time

METAR text: RJOK 030800Z 13002KT 9999 -RA FEW010 SCT050 BKN120 22/20 Q1005
Conditions at: RJOK (KOCHI AIRPORT , JP) observed 0800 UTC 03 June 2020
Temperature: 22.0°C (72°F)
Dewpoint: 20.0°C (68°F) [RH = 88%]
Pressure (altimeter): 29.68 inches Hg (1005.0 mb)
Winds: from the SE (130 degrees) at 2 MPH (2 knots; 1.0 m/s)
Visibility: 6 or more miles (10+ km)
Ceiling: 12000 feet AGL
Clouds: few clouds at 1000 feet AGL
scattered clouds at 5000 feet AGL
broken clouds at 12000 feet AGL
Weather: -RA  (light rain)

METAR text: RJOK 030700Z VRB02KT CAVOK 23/20 Q1006
Conditions at: RJOK (KOCHI AIRPORT , JP) observed 0700 UTC 03 June 2020
Temperature: 23.0°C (73°F)
Dewpoint: 20.0°C (68°F) [RH = 83%]
Pressure (altimeter): 29.70 inches Hg (1006.0 mb)
Winds: variable direction winds at 2 MPH (2 knots; 1.0 m/s)
Visibility: 6 or more miles (10+ km)
Ceiling: ceiling and visibility are OK
Clouds: unknown
Weather: no significant weather observed at this time

METAR text: RJOK 030600Z 21004KT 170V250 CAVOK 23/20 Q1006
Conditions at: RJOK (KOCHI AIRPORT , JP) observed 0600 UTC 03 June 2020
Temperature: 23.0°C (73°F)
Dewpoint: 20.0°C (68°F) [RH = 83%]
Pressure (altimeter): 29.70 inches Hg (1006.0 mb)
Winds: from the SSW (210 degrees) at 5 MPH (4 knots; 2.1 m/s)
Visibility: 6 or more miles (10+ km)
Ceiling: ceiling and visibility are OK
Clouds: unknown
Weather: no significant weather observed at this time

METAR text: RJOK 030500Z 20006KT CAVOK 23/20 Q1006
Conditions at: RJOK (KOCHI AIRPORT , JP) observed 0500 UTC 03 June 2020
Temperature: 23.0°C (73°F)
Dewpoint: 20.0°C (68°F) [RH = 83%]
Pressure (altimeter): 29.70 inches Hg (1006.0 mb)
Winds: from the SSW (200 degrees) at 7 MPH (6 knots; 3.1 m/s)
Visibility: 6 or more miles (10+ km)
Ceiling: ceiling and visibility are OK
Clouds: unknown
Weather: no significant weather observed at this time

METAR text: RJOK 030400Z 18006KT CAVOK 24/19 Q1006
Conditions at: RJOK (KOCHI AIRPORT , JP) observed 0400 UTC 03 June 2020
Temperature: 24.0°C (75°F)
Dewpoint: 19.0°C (66°F) [RH = 74%]
Pressure (altimeter): 29.70 inches Hg (1006.0 mb)
Winds: from the S (180 degrees) at 7 MPH (6 knots; 3.1 m/s)
Visibility: 6 or more miles (10+ km)
Ceiling: ceiling and visibility are OK
Clouds: unknown
Weather: no significant weather observed at this time

METAR text: RJOK 030300Z 15004KT 110V190 CAVOK 24/19 Q1006
Conditions at: RJOK (KOCHI AIRPORT , JP) observed 0300 UTC 03 June 2020
Temperature: 24.0°C (75°F)
Dewpoint: 19.0°C (66°F) [RH = 74%]
Pressure (altimeter): 29.70 inches Hg (1006.0 mb)
Winds: from the SSE (150 degrees) at 5 MPH (4 knots; 2.1 m/s)
Visibility: 6 or more miles (10+ km)
Ceiling: ceiling and visibility are OK
Clouds: unknown
Weather: no significant weather observed at this time

METAR text: RJOK 030200Z 18005KT 140V210 9999 FEW030 BKN/// 24/19 Q1007
Conditions at: RJOK (KOCHI AIRPORT , JP) observed 0200 UTC 03 June 2020
Temperature: 24.0°C (75°F)
Dewpoint: 19.0°C (66°F) [RH = 74%]
Pressure (altimeter): 29.73 inches Hg (1007.0 mb)
Winds: from the S (180 degrees) at 6 MPH (5 knots; 2.6 m/s)
Visibility: 6 or more miles (10+ km)
Ceiling: at least 12,000 feet AGL
Clouds: few clouds at 3000 feet AGL
Weather: no significant weather observed at this time

METAR text: RJOK 030100Z 19006KT 9999 FEW035 SCT180 BKN/// 24/19 Q1007
Conditions at: RJOK (KOCHI AIRPORT , JP) observed 0100 UTC 03 June 2020
Temperature: 24.0°C (75°F)
Dewpoint: 19.0°C (66°F) [RH = 74%]
Pressure (altimeter): 29.73 inches Hg (1007.0 mb)
Winds: from the S (190 degrees) at 7 MPH (6 knots; 3.1 m/s)
Visibility: 6 or more miles (10+ km)
Ceiling: at least 12,000 feet AGL
Clouds: few clouds at 3500 feet AGL
scattered clouds at 18000 feet AGL
Weather: no significant weather observed at this time

METAR text: RJOK 030000Z 16004KT 130V220 CAVOK 24/19 Q1006
Conditions at: RJOK (KOCHI AIRPORT , JP) observed 0000 UTC 03 June 2020
Temperature: 24.0°C (75°F)
Dewpoint: 19.0°C (66°F) [RH = 74%]
Pressure (altimeter): 29.70 inches Hg (1006.0 mb)
Winds: from the SSE (160 degrees) at 5 MPH (4 knots; 2.1 m/s)
Visibility: 6 or more miles (10+ km)
Ceiling: ceiling and visibility are OK
Clouds: unknown
Weather: no significant weather observed at this time

METAR text: RJOK 022300Z 05003KT 360V150 CAVOK 24/17 Q1006
Conditions at: RJOK (KOCHI AIRPORT , JP) observed 2300 UTC 02 June 2020
Temperature: 24.0°C (75°F)
Dewpoint: 17.0°C (63°F) [RH = 65%]
Pressure (altimeter): 29.70 inches Hg (1006.0 mb)
Winds: from the NE (50 degrees) at 3 MPH (3 knots; 1.5 m/s)
Visibility: 6 or more miles (10+ km)
Ceiling: ceiling and visibility are OK
Clouds: unknown
Weather: no significant weather observed at this time

METAR text: RJOK 022200Z 35005KT CAVOK 21/17 Q1006
Conditions at: RJOK (KOCHI AIRPORT , JP) observed 2200 UTC 02 June 2020
Temperature: 21.0°C (70°F)
Dewpoint: 17.0°C (63°F) [RH = 78%]
Pressure (altimeter): 29.70 inches Hg (1006.0 mb)
Winds: from the N (350 degrees) at 6 MPH (5 knots; 2.6 m/s)
Visibility: 6 or more miles (10+ km)
Ceiling: ceiling and visibility are OK
Clouds: unknown
Weather: no significant weather observed at this time

METAR text: RJOK 022110Z 34008KT CAVOK 20/17 Q1006 RMK A2972
Conditions at: RJOK (KOCHI AIRPORT , JP) observed 2110 UTC 02 June 2020
Temperature: 20.0°C (68°F)
Dewpoint: 17.0°C (63°F) [RH = 83%]
Pressure (altimeter): 29.70 inches Hg (1006.0 mb)
Winds: from the NNW (340 degrees) at 9 MPH (8 knots; 4.1 m/s)
Visibility: 6 or more miles (10+ km)
Ceiling: ceiling and visibility are OK
Clouds: unknown
Weather: no significant weather observed at this time

METAR text: RJOK 021100Z 13003KT 9999 FEW020 23/21 Q1007
Conditions at: RJOK (KOCHI AIRPORT , JP) observed 1100 UTC 02 June 2020
Temperature: 23.0°C (73°F)
Dewpoint: 21.0°C (70°F) [RH = 89%]
Pressure (altimeter): 29.73 inches Hg (1007.0 mb)
Winds: from the SE (130 degrees) at 3 MPH (3 knots; 1.5 m/s)
Visibility: 6 or more miles (10+ km)
Ceiling: at least 12,000 feet AGL
Clouds: few clouds at 2000 feet AGL
Weather: no significant weather observed at this time

METAR text: RJOK 021000Z 13004KT 9999 FEW020 23/21 Q1007
Conditions at: RJOK (KOCHI AIRPORT , JP) observed 1000 UTC 02 June 2020
Temperature: 23.0°C (73°F)
Dewpoint: 21.0°C (70°F) [RH = 89%]
Pressure (altimeter): 29.73 inches Hg (1007.0 mb)
Winds: from the SE (130 degrees) at 5 MPH (4 knots; 2.1 m/s)
Visibility: 6 or more miles (10+ km)
Ceiling: at least 12,000 feet AGL
Clouds: few clouds at 2000 feet AGL
Weather: no significant weather observed at this time

METAR text: RJOK 020900Z 12004KT 9999 FEW020 24/20 Q1007
Conditions at: RJOK (KOCHI AIRPORT , JP) observed 0900 UTC 02 June 2020
Temperature: 24.0°C (75°F)
Dewpoint: 20.0°C (68°F) [RH = 78%]
Pressure (altimeter): 29.73 inches Hg (1007.0 mb)
Winds: from the ESE (120 degrees) at 5 MPH (4 knots; 2.1 m/s)
Visibility: 6 or more miles (10+ km)
Ceiling: at least 12,000 feet AGL
Clouds: few clouds at 2000 feet AGL
Weather: no significant weather observed at this time

METAR text: RJOK 020800Z 14005KT 110V180 9999 FEW020 24/21 Q1007
Conditions at: RJOK (KOCHI AIRPORT , JP) observed 0800 UTC 02 June 2020
Temperature: 24.0°C (75°F)
Dewpoint: 21.0°C (70°F) [RH = 83%]
Pressure (altimeter): 29.73 inches Hg (1007.0 mb)
Winds: from the SE (140 degrees) at 6 MPH (5 knots; 2.6 m/s)
Visibility: 6 or more miles (10+ km)
Ceiling: at least 12,000 feet AGL
Clouds: few clouds at 2000 feet AGL
Weather: no significant weather observed at this time

METAR text: RJOK 020700Z 15006KT 130V190 9999 FEW020 BKN/// 25/22 Q1007
Conditions at: RJOK (KOCHI AIRPORT , JP) observed 0700 UTC 02 June 2020
Temperature: 25.0°C (77°F)
Dewpoint: 22.0°C (72°F) [RH = 83%]
Pressure (altimeter): 29.73 inches Hg (1007.0 mb)
Winds: from the SSE (150 degrees) at 7 MPH (6 knots; 3.1 m/s)
Visibility: 6 or more miles (10+ km)
Ceiling: at least 12,000 feet AGL
Clouds: few clouds at 2000 feet AGL
Weather: no significant weather observed at this time

METAR text: RJOK 020600Z 17005KT 130V230 9999 FEW030 BKN/// 24/21 Q1007
Conditions at: RJOK (KOCHI AIRPORT , JP) observed 0600 UTC 02 June 2020
Temperature: 24.0°C (75°F)
Dewpoint: 21.0°C (70°F) [RH = 83%]
Pressure (altimeter): 29.73 inches Hg (1007.0 mb)
Winds: from the S (170 degrees) at 6 MPH (5 knots; 2.6 m/s)
Visibility: 6 or more miles (10+ km)
Ceiling: at least 12,000 feet AGL
Clouds: few clouds at 3000 feet AGL
Weather: no significant weather observed at this time

Forecast for: RJOK (KOCHI AIRPORT , JP)
Text: TAF RJOK 031711Z 0318/0500 34006KT 9999 FEW020
Forecast period: 1800 to 2100 UTC 03 June 2020
Forecast type: FROM: standard forecast or significant change
Winds: from the NNW (340 degrees) at 7 MPH (6 knots; 3.1 m/s)
Visibility: 6 or more miles 10+ km)
Ceiling: at least 12,000 feet AGL
Clouds: few clouds at 2000 feet AGL
Weather: no significant weather forecast for this period
Text: BECMG 0321/0323 12006KT
Forecast period: 2100 UTC 03 June 2020 to 0600 UTC 04 June 2020
Forecast type: BECOMING: Conditions expected to become as follows by 2300 UTC 03 June 2020
Winds: from the ESE (120 degrees) at 7 MPH (6 knots; 3.1 m/s)
Visibility: 6 or more miles 10+ km)
Ceiling: at least 12,000 feet AGL
Clouds: few clouds at 2000 feet AGL
Weather: no significant weather forecast for this period
Text: BECMG 0406/0409 34005KT
Forecast period: 0600 to 2100 UTC 04 June 2020
Forecast type: BECOMING: Conditions expected to become as follows by 0900 UTC 04 June 2020
Winds: from the NNW (340 degrees) at 6 MPH (5 knots; 2.6 m/s)
Visibility: 6 or more miles 10+ km)
Ceiling: at least 12,000 feet AGL
Clouds: few clouds at 2000 feet AGL
Weather: no significant weather forecast for this period
Text: BECMG 0421/0500 17006KT
Forecast period: 2100 UTC 04 June 2020 to 0000 UTC 05 June 2020
Forecast type: BECOMING: Conditions expected to become as follows by 0000 UTC 05 June 2020
Winds: from the S (170 degrees) at 7 MPH (6 knots; 3.1 m/s)
Visibility: 6 or more miles 10+ km)
Ceiling: at least 12,000 feet AGL
Clouds: few clouds at 2000 feet AGL
Weather: no significant weather forecast for this period